Time;durP1;ratioP1;P1;durP2;ratioP2;P2;SDS_P1;SDS_P2;PMS_P1;PMS_P2;Temp;Humidity;BMP_temperature;BMP_pressure;BME280_temperature;BME280_humidity;BME280_pressure;Samples;Min_cycle;Max_cycle;Signal;HPM_P1;HPM_P2
2021/01/27 00:00:23;;;;;;;26.13;17.23;;;2.70;96.10;;;;;;5134060;27;20070;-54
2021/01/27 00:02:49;;;;;;;30.25;18.23;;;2.80;96.10;;;;;;5133158;27;20089;-54
2021/01/27 00:05:18;;;;;;;25.83;17.13;;;2.80;96.20;;;;;;5134021;27;20457;-52
2021/01/27 00:07:44;;;;;;;;;;;2.80;96.10;;;;;;5134193;27;20089;-54
2021/01/27 00:10:11;;;;;;;24.58;17.33;;;2.90;96.10;;;;;;5133907;27;20364;-50
2021/01/27 00:12:37;;;;;;;27.35;18.52;;;2.90;96.20;;;;;;5133843;27;20069;-52
2021/01/27 00:15:14;;;;;;;26.80;18.98;;;2.90;96.10;;;;;;5133950;27;20389;-52
2021/01/27 00:17:40;;;;;;;24.92;18.90;;;2.90;96.10;;;;;;5133906;27;20050;-50
2021/01/27 00:20:10;;;;;;;22.50;17.73;;;2.90;96.20;;;;;;5133711;27;20043;-54
2021/01/27 00:22:35;;;;;;;25.48;18.02;;;2.90;96.10;;;;;;5133349;27;20492;-53
2021/01/27 00:25:03;;;;;;;28.08;20.33;;;2.90;96.10;;;;;;5133324;27;20078;-53
2021/01/27 00:27:29;;;;;;;28.45;19.63;;;2.90;96.30;;;;;;5133485;27;20099;-51
2021/01/27 00:29:54;;;;;;;25.73;18.58;;;2.90;96.10;;;;;;5133542;27;20039;-53
2021/01/27 00:32:20;;;;;;;28.63;19.33;;;2.90;96.20;;;;;;5133154;27;20043;-52
2021/01/27 00:34:46;;;;;;;25.35;19.75;;;2.90;96.20;;;;;;5133530;27;20058;-53
2021/01/27 00:37:12;;;;;;;30.40;19.90;;;3.00;96.10;;;;;;5133429;27;20404;-52
2021/01/27 00:39:37;;;;;;;28.73;19.45;;;3.00;96.00;;;;;;5133407;27;20050;-53
2021/01/27 00:42:03;;;;;;;26.75;19.08;;;3.00;96.10;;;;;;5133608;27;20046;-53
2021/01/27 00:44:29;;;;;;;28.85;19.38;;;3.00;95.90;;;;;;5133501;27;20050;-51
2021/01/27 00:46:55;;;;;;;25.52;19.45;;;2.90;96.00;;;;;;5133410;27;20438;-53
2021/01/27 00:49:20;;;;;;;34.53;20.30;;;2.90;96.10;;;;;;5133265;27;20042;-53
2021/01/27 00:51:46;;;;;;;30.20;20.02;;;2.90;96.00;;;;;;5131625;27;20044;-53
2021/01/27 00:54:12;;;;;;;28.77;19.58;;;3.00;96.10;;;;;;5133367;27;20047;-52
2021/01/27 00:56:37;;;;;;;26.23;18.92;;;3.00;96.10;;;;;;5133289;28;20044;-52
2021/01/27 00:59:03;;;;;;;27.48;20.25;;;2.90;96.10;;;;;;5133523;28;20042;-53
2021/01/27 01:01:31;;;;;;;28.98;19.83;;;3.00;96.10;;;;;;5133142;27;20445;-53
2021/01/27 01:03:57;;;;;;;25.80;19.65;;;3.00;96.00;;;;;;5132950;27;20043;-54
2021/01/27 01:06:23;;;;;;;29.25;20.60;;;2.90;96.10;;;;;;5133107;27;20047;-53
2021/01/27 01:08:49;;;;;;;28.10;20.15;;;2.90;96.20;;;;;;5133028;28;20087;-52
2021/01/27 01:11:15;;;;;;;27.65;21.15;;;2.90;96.10;;;;;;5132962;28;20095;-53
2021/01/27 01:13:40;;;;;;;31.42;20.55;;;2.90;96.10;;;;;;5133058;27;20424;-52
2021/01/27 01:16:06;;;;;;;26.23;20.05;;;2.90;96.10;;;;;;5135977;27;20047;-53
2021/01/27 01:18:32;;;;;;;30.15;19.95;;;3.00;96.00;;;;;;5137249;27;20047;-54
2021/01/27 01:20:58;;;;;;;29.60;19.77;;;3.00;95.90;;;;;;5137150;27;20488;-52
2021/01/27 01:23:24;;;;;;;27.10;20.38;;;2.90;96.00;;;;;;5136852;27;20480;-53
2021/01/27 01:25:50;;;;;;;25.73;18.92;;;2.90;96.00;;;;;;5137142;27;20039;-53
2021/01/27 01:28:15;;;;;;;29.25;18.73;;;2.90;95.80;;;;;;5136878;27;20049;-53
2021/01/27 01:30:43;;;;;;;53.45;21.33;;;2.90;95.90;;;;;;5136824;27;20050;-53
2021/01/27 01:33:16;;;;;;;26.05;19.00;;;2.90;95.80;;;;;;5136276;27;20051;-52
2021/01/27 01:35:44;;;;;;;27.42;19.95;;;2.90;95.80;;;;;;5136174;27;20047;-53
2021/01/27 01:38:11;;;;;;;26.90;20.27;;;2.90;95.80;;;;;;5136165;27;20492;-54
2021/01/27 01:40:45;;;;;;;31.52;20.98;;;2.90;95.80;;;;;;5136235;27;20559;-52
2021/01/27 01:43:20;;;;;;;26.02;19.92;;;2.90;95.70;;;;;;5136321;27;20047;-53
2021/01/27 01:45:52;;;;;;;28.52;19.95;;;2.90;95.70;;;;;;5136755;27;20047;-53
2021/01/27 01:48:33;;;;;;;28.27;19.25;;;2.80;95.80;;;;;;5136704;27;20053;-52
2021/01/27 01:51:01;;;;;;;24.55;19.30;;;2.80;95.80;;;;;;5136574;27;20074;-52
2021/01/27 01:53:27;;;;;;;26.05;19.23;;;2.80;95.60;;;;;;5136540;27;20058;-53
2021/01/27 01:55:57;;;;;;;26.05;19.50;;;2.80;95.70;;;;;;5136600;27;20047;-54
2021/01/27 01:58:22;;;;;;;28.88;18.80;;;2.80;95.60;;;;;;5136480;27;20063;-53
2021/01/27 02:00:53;;;;;;;28.17;19.20;;;2.80;95.60;;;;;;5136466;27;20451;-52
2021/01/27 02:03:19;;;;;;;22.98;17.85;;;2.80;95.70;;;;;;5136260;27;20410;-53
2021/01/27 02:05:45;;;;;;;27.67;19.25;;;2.80;95.60;;;;;;5136141;27;20088;-53
2021/01/27 02:08:12;;;;;;;28.27;19.70;;;2.80;95.50;;;;;;5136270;27;20395;-53
2021/01/27 02:10:38;;;;;;;28.42;18.77;;;2.80;95.50;;;;;;5136254;27;20079;-53
2021/01/27 02:13:39;;;;;;;25.90;18.63;;;2.80;95.40;;;;;;5135990;27;20069;-54
2021/01/27 02:16:25;;;;;;;26.75;18.15;;;2.80;95.20;;;;;;5136370;27;20099;-53
2021/01/27 02:19:08;;;;;;;26.20;18.27;;;2.80;95.30;;;;;;5136111;27;20408;-51
2021/01/27 02:21:53;;;;;;;24.58;17.90;;;2.80;95.40;;;;;;5135870;27;20399;-53
2021/01/27 02:24:31;;;;;;;25.20;16.70;;;2.80;95.10;;;;;;5135971;27;20047;-51
2021/01/27 02:27:16;;;;;;;23.85;17.52;;;2.80;94.90;;;;;;5135474;27;20047;-52
2021/01/27 02:30:14;;;;;;;23.27;16.35;;;2.70;94.80;;;;;;5135926;27;20043;-53
2021/01/27 02:33:08;;;;;;;25.65;16.13;;;2.70;94.60;;;;;;5072112;28;20084;-53
2021/01/27 02:35:40;;;;;;;22.85;15.40;;;2.70;94.60;;;;;;5072348;28;20040;-53
2021/01/27 02:38:20;;;;;;;22.48;15.48;;;2.70;94.60;;;;;;5072485;28;20897;-51
2021/01/27 02:40:55;;;;;;;24.73;14.75;;;2.70;94.40;;;;;;5072264;28;20048;-53
2021/01/27 02:43:31;;;;;;;18.83;14.40;;;2.70;94.30;;;;;;5072186;28;20147;-51
2021/01/27 02:46:03;;;;;;;19.85;14.27;;;2.70;93.80;;;;;;5072018;28;20044;-53
2021/01/27 02:48:39;;;;;;;19.42;13.75;;;2.70;93.70;;;;;;5072037;28;20517;-53
2021/01/27 02:51:17;;;;;;;17.52;12.85;;;2.70;93.50;;;;;;5072217;28;20049;-52
2021/01/27 02:53:54;;;;;;;20.13;13.90;;;2.70;93.60;;;;;;5072041;28;20524;-53
2021/01/27 02:56:26;;;;;;;16.52;12.13;;;2.70;93.50;;;;;;5071940;28;20056;-54
2021/01/27 02:59:05;;;;;;;18.90;13.43;;;2.70;93.40;;;;;;5071901;28;20048;-52
2021/01/27 03:01:42;;;;;;;17.20;12.35;;;2.70;93.50;;;;;;5071823;28;20095;-53
2021/01/27 03:04:21;;;;;;;16.00;13.23;;;2.70;93.60;;;;;;5071658;28;20056;-53
2021/01/27 03:06:49;;;;;;;15.63;12.23;;;2.70;93.20;;;;;;5071689;28;20048;-54
2021/01/27 03:09:36;;;;;;;18.33;12.70;;;2.70;93.30;;;;;;5092612;27;20488;-53
2021/01/27 03:12:02;;;;;;;17.65;12.35;;;2.70;93.20;;;;;;5134914;27;20082;-53
2021/01/27 03:14:28;;;;;;;14.85;10.65;;;2.70;93.20;;;;;;5134929;27;20047;-52
2021/01/27 03:17:00;;;;;;;18.38;11.63;;;2.70;93.20;;;;;;5135115;27;20054;-53
2021/01/27 03:19:39;;;;;;;18.95;12.55;;;2.70;93.00;;;;;;5135022;27;20111;-54
2021/01/27 03:22:15;;;;;;;15.55;11.75;;;2.70;93.00;;;;;;5134742;27;20050;-54
2021/01/27 03:24:51;;;;;;;20.20;11.65;;;2.70;93.20;;;;;;5134938;27;20165;-54
2021/01/27 03:27:23;;;;;;;19.30;12.30;;;2.70;92.90;;;;;;5134689;27;20126;-53
2021/01/27 03:29:58;;;;;;;17.42;11.10;;;2.70;93.00;;;;;;5134499;27;20485;-52
2021/01/27 03:32:46;;;;;;;14.02;10.38;;;2.70;92.90;;;;;;5134482;27;20483;-54
2021/01/27 03:35:27;;;;;;;13.13;10.80;;;2.70;92.90;;;;;;5134756;27;20039;-54
2021/01/27 03:38:01;;;;;;;16.10;11.63;;;2.60;93.10;;;;;;5133539;27;20506;-53
2021/01/27 03:40:28;;;;;;;12.90;10.63;;;2.70;92.80;;;;;;5134695;27;20066;-54
2021/01/27 03:43:02;;;;;;;17.90;11.00;;;2.60;92.90;;;;;;5134312;27;20075;-54
2021/01/27 03:45:32;;;;;;;16.27;10.57;;;2.60;92.90;;;;;;5134465;27;20058;-54
2021/01/27 03:48:43;;;;;;;17.17;11.60;;;2.60;92.90;;;;;;5134223;27;20480;-52
2021/01/27 03:51:11;;;;;;;13.15;10.15;;;2.60;93.00;;;;;;5070835;28;20123;-53
2021/01/27 03:53:38;;;;;;;15.60;10.48;;;2.50;93.00;;;;;;5070679;28;20049;-52
2021/01/27 03:56:14;;;;;;;13.90;10.50;;;2.60;92.80;;;;;;5070796;28;20048;-52
2021/01/27 03:58:43;;;;;;;14.82;9.57;;;2.60;93.00;;;;;;5070734;28;20058;-53
2021/01/27 04:01:11;;;;;;;18.08;10.38;;;2.50;93.10;;;;;;5070725;28;20044;-53
2021/01/27 04:03:38;;;;;;;15.57;10.50;;;2.50;93.00;;;;;;5070500;28;20059;-52
2021/01/27 04:06:06;;;;;;;15.43;10.02;;;2.50;93.10;;;;;;5070506;28;20044;-52
2021/01/27 04:08:32;;;;;;;15.20;10.20;;;2.50;92.80;;;;;;5070513;28;20060;-53
2021/01/27 04:10:59;;;;;;;13.68;10.00;;;2.60;92.90;;;;;;5070415;28;20490;-52
2021/01/27 04:13:25;;;;;;;15.80;10.15;;;2.50;92.90;;;;;;5070515;28;20132;-53
2021/01/27 04:15:51;;;;;;;14.75;10.13;;;2.50;92.90;;;;;;5070281;28;20097;-53
2021/01/27 04:18:17;;;;;;;16.95;10.73;;;2.50;93.10;;;;;;5070427;28;20049;-51
2021/01/27 04:20:43;;;;;;;15.48;10.25;;;2.50;92.90;;;;;;5074397;28;20048;-53
2021/01/27 04:23:09;;;;;;;15.68;10.65;;;2.50;93.00;;;;;;5133688;27;20047;-53
2021/01/27 04:25:34;;;;;;;13.30;10.63;;;2.50;93.10;;;;;;5133795;27;20469;-53
2021/01/27 04:28:00;;;;;;;13.68;9.57;;;2.50;93.10;;;;;;5133726;27;20043;-54
2021/01/27 04:30:31;;;;;;;16.02;10.13;;;2.50;93.20;;;;;;5133433;27;20088;-51
2021/01/27 04:32:59;;;;;;;17.13;9.48;;;2.40;93.30;;;;;;5133567;27;20066;-52
2021/01/27 04:35:25;;;;;;;15.23;9.95;;;2.50;93.40;;;;;;5133332;27;20476;-52
2021/01/27 04:37:51;;;;;;;16.60;10.15;;;2.50;93.30;;;;;;5133291;27;20043;-54
2021/01/27 04:40:23;;;;;;;13.43;9.90;;;2.50;93.40;;;;;;5133720;27;20552;-53
2021/01/27 04:42:50;;;;;;;19.35;10.15;;;2.40;93.60;;;;;;5133182;27;20070;-53
2021/01/27 04:45:17;;;;;;;15.07;10.18;;;2.40;93.60;;;;;;5133295;27;20038;-52
2021/01/27 04:48:14;;;;;;;19.38;9.50;;;2.50;93.60;;;;;;5133141;27;20488;-52
2021/01/27 04:50:51;;;;;;;13.90;10.52;;;2.50;93.60;;;;;;5069862;28;20453;-54
2021/01/27 04:53:19;;;;;;;13.25;9.18;;;2.50;93.70;;;;;;5070093;28;20186;-53
2021/01/27 04:56:22;;;;;;;12.95;9.30;;;2.40;93.80;;;;;;5070036;28;20055;-53
2021/01/27 04:59:02;;;;;;;19.83;9.73;;;2.40;93.90;;;;;;5070057;28;20041;-53
2021/01/27 05:01:28;;;;;;;17.92;10.35;;;2.40;94.20;;;;;;5069962;28;20496;-54
2021/01/27 05:04:06;;;;;;;13.60;9.45;;;2.30;94.30;;;;;;5069770;28;20072;-52
2021/01/27 05:06:32;;;;;;;15.93;9.05;;;2.30;94.50;;;;;;5070147;28;20041;-53
2021/01/27 05:09:17;;;;;;;17.27;9.63;;;2.30;94.40;;;;;;5053460;28;20056;-52
2021/01/27 05:11:44;;;;;;;16.33;9.25;;;2.30;94.40;;;;;;5069783;28;20126;-53
2021/01/27 05:14:14;;;;;;;14.30;9.60;;;2.30;94.50;;;;;;5069752;28;20080;-53
2021/01/27 05:16:40;;;;;;;14.40;9.70;;;2.30;94.40;;;;;;5069976;28;20676;-53
2021/01/27 05:19:07;;;;;;;21.60;9.90;;;2.40;94.50;;;;;;5069838;28;20040;-54
2021/01/27 05:21:41;;;;;;;15.27;9.70;;;2.30;94.60;;;;;;5069690;28;20132;-53
2021/01/27 05:24:08;;;;;;;16.30;9.55;;;2.30;94.60;;;;;;5069608;28;20055;-53
2021/01/27 05:26:37;;;;;;;13.80;9.15;;;2.30;94.60;;;;;;5075221;28;20067;-52
2021/01/27 05:29:08;;;;;;;15.02;8.48;;;2.30;94.70;;;;;;5132897;27;20040;-54
2021/01/27 05:32:06;;;;;;;11.13;8.20;;;2.30;94.80;;;;;;5132833;27;20035;-53
2021/01/27 05:34:44;;;;;;;17.60;9.48;;;2.30;94.90;;;;;;5132531;27;20047;-53
2021/01/27 05:37:12;;;;;;;13.27;9.18;;;2.40;95.30;;;;;;5132385;27;20059;-53
2021/01/27 05:39:40;;;;;;;20.35;8.95;;;2.30;95.30;;;;;;5132278;27;20058;-51
2021/01/27 05:42:31;;;;;;;12.13;9.43;;;2.30;95.20;;;;;;5132607;27;20039;-53
2021/01/27 05:45:32;;;;;;;13.88;9.02;;;2.30;95.30;;;;;;5132361;27;20055;-53
2021/01/27 05:48:30;;;;;;;16.48;9.82;;;2.20;95.50;;;;;;5132788;27;20043;-51
2021/01/27 05:51:12;;;;;;;18.17;9.07;;;2.20;95.60;;;;;;5132611;27;20039;-54
2021/01/27 05:53:38;;;;;;;12.52;9.50;;;2.20;95.60;;;;;;5132621;27;20047;-53
2021/01/27 05:56:24;;;;;;;14.27;9.40;;;2.10;95.60;;;;;;5132622;27;20593;-54
2021/01/27 05:59:07;;;;;;;13.15;9.70;;;2.00;95.90;;;;;;5132812;27;20077;-53
2021/01/27 06:01:46;;;;;;;15.30;10.23;;;2.00;95.90;;;;;;5133965;27;20450;-53
2021/01/27 06:04:18;;;;;;;13.68;8.70;;;2.00;95.90;;;;;;5136037;27;20452;-54
2021/01/27 06:06:48;;;;;;;16.30;9.38;;;1.90;96.00;;;;;;5136125;27;20059;-53
2021/01/27 06:09:14;;;;;;;;;;;1.90;96.00;;;;;;5136524;27;20043;-54
2021/01/27 06:11:42;;;;;;;15.57;9.02;;;1.90;96.00;;;;;;5136084;27;19915;-53
2021/01/27 06:14:10;;;;;;;13.93;9.38;;;1.80;96.00;;;;;;5136133;27;20047;-52
2021/01/27 06:16:48;;;;;;;14.75;9.07;;;1.80;96.10;;;;;;5136135;27;20039;-49
2021/01/27 06:19:18;;;;;;;17.67;9.05;;;1.80;96.10;;;;;;5135900;27;20051;-54
2021/01/27 06:22:27;;;;;;;14.30;9.43;;;1.70;96.30;;;;;;5135847;27;20423;-54
2021/01/27 06:25:27;;;;;;;14.57;9.07;;;1.70;96.30;;;;;;5072408;28;20048;-54
2021/01/27 06:28:21;;;;;;;17.23;9.93;;;1.60;96.40;;;;;;5012734;28;20053;-52
2021/01/27 06:30:52;;;;;;;13.95;9.65;;;1.50;96.80;;;;;;5012632;28;20551;-54
2021/01/27 06:33:38;;;;;;;14.70;9.23;;;1.40;96.80;;;;;;5012591;28;20128;-52
2021/01/27 06:36:37;;;;;;;14.88;9.40;;;1.50;96.90;;;;;;5012568;28;20050;-52
2021/01/27 06:39:20;;;;;;;13.23;9.40;;;1.40;96.90;;;;;;5012497;28;20096;-54
2021/01/27 06:42:22;;;;;;;14.68;9.57;;;1.40;97.10;;;;;;5012179;28;20046;-54
2021/01/27 06:45:30;;;;;;;17.73;10.35;;;1.40;97.20;;;;;;4934792;29;20162;-54
2021/01/27 06:48:03;;;;;;;11.65;8.68;;;1.30;97.30;;;;;;4934749;29;20059;-53
2021/01/27 06:50:33;;;;;;;13.90;10.18;;;1.30;97.10;;;;;;4934883;29;20052;-53
2021/01/27 06:53:26;;;;;;;12.73;9.25;;;1.40;97.10;;;;;;4934735;29;20413;-53
2021/01/27 06:56:19;;;;;;;11.90;9.45;;;1.40;97.00;;;;;;4934610;29;20482;-52
2021/01/27 06:59:15;;;;;;;14.93;8.77;;;1.30;97.00;;;;;;4934466;29;20107;-52
2021/01/27 07:02:04;;;;;;;14.65;9.60;;;1.40;97.00;;;;;;5012139;28;20439;-54
2021/01/27 07:04:45;;;;;;;14.45;9.60;;;1.30;97.10;;;;;;5025188;28;20080;-53
2021/01/27 07:07:34;;;;;;;20.15;10.00;;;1.30;97.00;;;;;;5035164;28;20075;-54
2021/01/27 07:10:21;;;;;;;15.50;9.50;;;1.30;97.20;;;;;;5051776;28;20045;-52
2021/01/27 07:13:06;;;;;;;15.88;10.52;;;1.30;97.20;;;;;;5051627;28;20045;-53
2021/01/27 07:15:37;;;;;;;14.45;9.80;;;1.20;97.50;;;;;;5051592;28;20052;-53
2021/01/27 07:18:33;;;;;;;15.85;10.68;;;1.30;97.30;;;;;;5051410;28;20041;-53
2021/01/27 07:21:08;;;;;;;17.50;11.13;;;1.30;97.20;;;;;;5115729;27;20122;-53
2021/01/27 07:23:52;;;;;;;15.27;11.00;;;1.30;97.30;;;;;;5134528;27;20141;-50
2021/01/27 07:26:34;;;;;;;17.48;11.15;;;1.30;97.30;;;;;;5134713;27;20066;-53
2021/01/27 07:29:11;;;;;;;14.98;11.30;;;1.30;97.40;;;;;;5134817;27;20049;-52
2021/01/27 07:31:53;;;;;;;16.73;11.85;;;1.30;97.40;;;;;;5134572;27;20141;-51
2021/01/27 07:34:23;;;;;;;16.27;11.75;;;1.30;97.20;;;;;;5134308;27;20043;-53
2021/01/27 07:37:13;;;;;;;14.13;11.32;;;1.30;97.30;;;;;;5134576;27;20050;-51
2021/01/27 07:39:45;;;;;;;13.85;11.18;;;1.30;97.30;;;;;;5134588;27;20046;-51
2021/01/27 07:42:19;;;;;;;14.45;10.95;;;1.30;97.20;;;;;;5134454;27;20388;-52
2021/01/27 07:44:49;;;;;;;26.92;11.10;;;1.30;97.50;;;;;;5134124;27;20043;-53
2021/01/27 07:47:36;;;;;;;19.45;11.43;;;1.30;97.20;;;;;;5133113;27;20345;-53
2021/01/27 07:50:03;;;;;;;14.75;10.63;;;1.30;97.30;;;;;;5134184;27;20043;-52
2021/01/27 07:52:47;;;;;;;15.00;10.68;;;1.30;97.40;;;;;;5134316;27;20027;-52
2021/01/27 07:55:17;;;;;;;13.45;10.80;;;1.30;97.50;;;;;;5134184;27;20058;-52
2021/01/27 07:57:53;;;;;;;16.92;10.85;;;1.30;97.40;;;;;;5134247;27;20054;-50
2021/01/27 08:00:24;;;;;;;19.67;10.98;;;1.30;97.50;;;;;;5134190;27;20075;-53
2021/01/27 08:03:02;;;;;;;14.02;10.70;;;1.30;97.40;;;;;;5133644;27;20044;-53
2021/01/27 08:05:36;;;;;;;15.75;11.15;;;1.30;97.40;;;;;;5133743;27;20043;-52
2021/01/27 08:08:12;;;;;;;15.82;11.32;;;1.30;97.40;;;;;;5133768;27;20423;-53
2021/01/27 08:10:39;;;;;;;12.63;10.07;;;1.30;97.30;;;;;;5134089;27;20046;-54
2021/01/27 08:13:06;;;;;;;15.70;12.38;;;1.30;97.40;;;;;;5133867;27;20093;-51
2021/01/27 08:15:32;;;;;;;16.08;11.82;;;1.30;97.40;;;;;;5133781;27;20051;-54
2021/01/27 08:18:11;;;;;;;17.80;11.90;;;1.30;97.60;;;;;;5133749;27;20720;-52
2021/01/27 08:20:39;;;;;;;14.43;11.93;;;1.30;97.50;;;;;;5133833;27;20047;-53
2021/01/27 08:23:26;;;;;;;14.95;11.93;;;1.30;97.50;;;;;;5133615;27;20078;-53
2021/01/27 08:25:54;;;;;;;15.70;10.52;;;1.40;97.40;;;;;;5133388;27;20062;-52
2021/01/27 08:28:20;;;;;;;18.98;11.43;;;1.30;97.40;;;;;;5133426;27;20085;-52
2021/01/27 08:31:08;;;;;;;14.18;10.68;;;1.30;97.40;;;;;;5133676;27;20047;-53
2021/01/27 08:33:45;;;;;;;17.85;11.35;;;1.30;97.60;;;;;;5133515;27;20496;-53
2021/01/27 08:36:16;;;;;;;12.57;9.68;;;1.20;97.50;;;;;;5133514;27;20463;-53
2021/01/27 08:39:07;;;;;;;13.23;10.18;;;1.30;97.50;;;;;;5133313;27;20446;-53
2021/01/27 08:41:39;;;;;;;13.18;9.63;;;1.20;97.60;;;;;;5133655;27;20053;-52
2021/01/27 08:44:06;;;;;;;14.63;9.95;;;1.20;97.70;;;;;;5133353;27;20075;-51
2021/01/27 08:46:43;;;;;;;12.45;9.70;;;1.30;97.70;;;;;;5133299;27;20047;-53
2021/01/27 08:49:10;;;;;;;10.13;8.27;;;1.20;97.70;;;;;;5133078;27;20031;-54
2021/01/27 08:51:45;;;;;;;12.90;8.88;;;1.30;97.70;;;;;;5133528;27;20055;-54
2021/01/27 08:54:28;;;;;;;10.18;7.70;;;1.30;97.60;;;;;;5133332;27;20392;-53
2021/01/27 08:57:32;;;;;;;10.63;7.85;;;1.30;97.70;;;;;;5133405;27;20044;-52
2021/01/27 09:00:03;;;;;;;14.65;8.15;;;1.30;97.70;;;;;;5133140;27;20043;-51
2021/01/27 09:03:03;;;;;;;9.80;8.25;;;1.30;97.70;;;;;;5132907;27;20042;-50
2021/01/27 09:05:29;;;;;;;10.40;7.95;;;1.30;97.70;;;;;;5133046;27;20047;-53
2021/01/27 09:07:59;;;;;;;9.02;7.60;;;1.30;97.70;;;;;;5133027;27;20043;-51
2021/01/27 09:10:50;;;;;;;9.60;8.10;;;1.40;97.70;;;;;;5133232;27;20050;-53
2021/01/27 09:13:19;;;;;;;8.95;7.15;;;1.30;97.80;;;;;;5133275;27;20055;-52
2021/01/27 09:15:50;;;;;;;9.85;6.70;;;1.40;97.80;;;;;;5132764;28;20039;-53
2021/01/27 09:18:15;;;;;;;8.40;6.80;;;1.40;97.70;;;;;;5133003;27;20047;-52
2021/01/27 09:20:41;;;;;;;7.93;6.57;;;1.40;97.80;;;;;;5132867;28;20541;-53
2021/01/27 09:23:07;;;;;;;12.77;6.97;;;1.40;97.80;;;;;;5132959;27;20483;-54
2021/01/27 09:25:41;;;;;;;7.18;6.18;;;1.40;97.70;;;;;;5133082;27;20126;-53
2021/01/27 09:28:09;;;;;;;7.28;6.03;;;1.40;97.70;;;;;;5132832;27;20504;-52
2021/01/27 09:30:36;;;;;;;9.48;6.90;;;1.40;97.70;;;;;;5132830;27;20058;-52
2021/01/27 09:33:08;;;;;;;8.73;7.22;;;1.40;97.80;;;;;;5132702;27;20043;-52
2021/01/27 09:35:35;;;;;;;7.57;6.07;;;1.40;98.00;;;;;;5132901;27;20043;-54
2021/01/27 09:38:09;;;;;;;9.60;6.78;;;1.50;97.70;;;;;;5136891;27;20498;-53
2021/01/27 09:40:49;;;;;;;8.35;7.00;;;1.50;97.80;;;;;;5137004;27;20125;-53
2021/01/27 09:43:17;;;;;;;;;;;1.40;97.80;;;;;;5136814;27;20050;-52
2021/01/27 09:45:49;;;;;;;7.30;6.55;;;1.40;98.10;;;;;;5136792;27;19963;-52
2021/01/27 09:48:19;;;;;;;8.23;6.80;;;1.50;97.90;;;;;;5136706;27;20039;-54
2021/01/27 09:50:59;;;;;;;8.48;7.57;;;1.50;97.90;;;;;;5136578;27;20067;-52
2021/01/27 09:53:29;;;;;;;9.38;7.45;;;1.50;97.90;;;;;;5136658;27;20051;-53
2021/01/27 09:55:55;;;;;;;9.88;7.05;;;1.50;97.90;;;;;;5136291;27;20092;-54
2021/01/27 09:58:22;;;;;;;9.77;6.95;;;1.50;97.90;;;;;;5136658;27;20137;-53
2021/01/27 10:00:50;;;;;;;7.38;6.40;;;1.50;97.90;;;;;;5136468;27;20134;-53
2021/01/27 10:03:30;;;;;;;8.60;7.05;;;1.50;98.00;;;;;;5135781;27;20047;-53
2021/01/27 10:05:57;;;;;;;8.77;6.68;;;1.50;98.00;;;;;;5136175;27;20039;-51
2021/01/27 10:08:26;;;;;;;6.60;5.90;;;1.60;98.00;;;;;;5136200;27;20050;-53
2021/01/27 10:11:04;;;;;;;;;;;1.60;97.90;;;;;;5136744;27;20126;-53
2021/01/27 10:13:32;;;;;;;6.88;5.50;;;1.60;97.90;;;;;;5136314;27;19919;-54
2021/01/27 10:16:13;;;;;;;7.95;6.32;;;1.60;97.90;;;;;;5136016;27;20035;-53
2021/01/27 10:18:40;;;;;;;7.45;6.20;;;1.70;98.00;;;;;;5136194;27;20050;-53
2021/01/27 10:21:14;;;;;;;11.65;5.97;;;1.60;98.20;;;;;;5135871;27;20039;-50
2021/01/27 10:23:43;;;;;;;7.85;6.40;;;1.60;98.30;;;;;;5134752;27;20149;-52
2021/01/27 10:26:32;;;;;;;7.55;6.13;;;1.70;98.20;;;;;;5135835;27;20065;-53
2021/01/27 10:29:15;;;;;;;7.45;6.22;;;1.60;98.10;;;;;;5135841;27;20039;-53
2021/01/27 10:31:43;;;;;;;7.47;5.57;;;1.70;98.10;;;;;;5136174;27;20506;-53
2021/01/27 10:34:09;;;;;;;9.10;6.13;;;1.70;98.10;;;;;;5135603;27;20480;-53
2021/01/27 10:36:40;;;;;;;7.35;6.30;;;1.70;98.10;;;;;;5135866;27;20176;-53
2021/01/27 10:39:35;;;;;;;8.73;7.05;;;1.70;98.20;;;;;;5135853;27;20086;-53
2021/01/27 10:42:07;;;;;;;7.95;6.75;;;1.70;98.20;;;;;;5072328;28;20051;-52
2021/01/27 10:44:36;;;;;;;8.82;6.50;;;1.80;98.10;;;;;;5072205;28;20044;-53
2021/01/27 10:47:07;;;;;;;7.70;6.60;;;1.80;98.10;;;;;;5071858;28;20044;-52
2021/01/27 10:49:45;;;;;;;6.82;6.13;;;1.80;98.20;;;;;;5071823;28;20067;-53
2021/01/27 10:52:26;;;;;;;8.05;6.30;;;1.80;98.10;;;;;;5072132;28;20041;-52
2021/01/27 10:55:10;;;;;;;10.25;6.63;;;1.80;98.20;;;;;;5072092;28;20059;-52
2021/01/27 10:57:36;;;;;;;7.78;5.93;;;1.80;98.20;;;;;;5072002;28;20132;-54
2021/01/27 11:00:14;;;;;;;7.10;6.40;;;1.80;98.30;;;;;;5071929;28;20580;-52
2021/01/27 11:02:40;;;;;;;8.15;6.60;;;1.90;98.40;;;;;;5071581;28;20051;-53
2021/01/27 11:05:06;;;;;;;7.90;6.38;;;1.90;98.30;;;;;;5071632;28;20053;-53
2021/01/27 11:07:32;;;;;;;7.10;5.85;;;2.00;98.00;;;;;;5071671;28;20048;-53
2021/01/27 11:09:58;;;;;;;8.30;7.38;;;2.00;98.00;;;;;;5071635;28;20052;-52
2021/01/27 11:12:23;;;;;;;8.52;6.38;;;2.00;98.10;;;;;;5071447;28;20041;-53
2021/01/27 11:14:49;;;;;;;8.02;6.60;;;2.00;98.20;;;;;;5071416;28;20121;-52
2021/01/27 11:17:15;;;;;;;7.25;6.32;;;2.10;98.20;;;;;;5072789;27;20048;-53
2021/01/27 11:19:41;;;;;;;7.53;6.72;;;2.10;98.20;;;;;;5134677;27;20377;-53
2021/01/27 11:22:06;;;;;;;11.43;7.05;;;2.10;98.10;;;;;;5134796;27;20047;-54
2021/01/27 11:24:32;;;;;;;9.07;6.63;;;2.10;98.30;;;;;;5134760;27;20043;-53
2021/01/27 11:26:58;;;;;;;9.73;7.93;;;2.10;98.30;;;;;;5134957;27;20086;-53
2021/01/27 11:29:24;;;;;;;9.25;7.43;;;2.20;98.30;;;;;;5134765;27;20529;-54
2021/01/27 11:31:49;;;;;;;9.45;7.15;;;2.30;98.10;;;;;;5134418;27;20050;-52
2021/01/27 11:34:15;;;;;;;8.75;7.22;;;2.30;98.20;;;;;;5134756;27;20491;-53
2021/01/27 11:36:41;;;;;;;10.40;8.02;;;2.30;98.30;;;;;;5133613;27;20039;-52
2021/01/27 11:39:10;;;;;;;9.25;7.50;;;2.30;98.40;;;;;;5133762;27;20035;-53
2021/01/27 11:41:36;;;;;;;9.65;7.70;;;2.30;98.30;;;;;;5130613;27;20122;-54
2021/01/27 11:44:03;;;;;;;11.13;8.35;;;2.40;98.30;;;;;;5133855;27;20471;-54
2021/01/27 11:46:28;;;;;;;10.13;7.75;;;2.40;98.40;;;;;;5133648;27;20050;-53
2021/01/27 11:48:54;;;;;;;12.57;8.00;;;2.40;98.50;;;;;;5133495;27;20399;-53
2021/01/27 11:51:20;;;;;;;11.82;8.95;;;2.50;98.50;;;;;;5133105;27;20073;-53
2021/01/27 11:53:45;;;;;;;13.05;8.43;;;2.50;98.60;;;;;;5133565;27;20054;-51
2021/01/27 11:56:12;;;;;;;10.77;8.57;;;2.60;98.70;;;;;;5133675;27;20058;-52
2021/01/27 11:58:39;;;;;;;11.32;7.75;;;2.60;98.70;;;;;;5131954;27;20428;-54
2021/01/27 12:01:06;;;;;;;10.63;8.52;;;2.70;98.70;;;;;;5117462;27;20088;-52
2021/01/27 12:03:32;;;;;;;10.88;8.27;;;2.70;98.80;;;;;;5131149;27;20420;-53
2021/01/27 12:05:58;;;;;;;12.98;9.05;;;2.70;98.60;;;;;;5127280;27;20067;-52
2021/01/27 12:08:24;;;;;;;10.75;8.40;;;2.80;98.60;;;;;;5123473;27;20035;-53
2021/01/27 12:10:51;;;;;;;10.60;8.95;;;2.80;98.60;;;;;;5132224;27;20126;-52
2021/01/27 12:13:19;;;;;;;11.90;9.10;;;2.90;98.50;;;;;;5131958;27;20092;-53
2021/01/27 12:15:45;;;;;;;11.93;9.52;;;2.90;98.60;;;;;;5132122;27;20125;-53
2021/01/27 12:18:14;;;;;;;14.00;10.10;;;2.90;98.70;;;;;;5127315;27;20061;-54
2021/01/27 12:20:42;;;;;;;12.75;9.57;;;3.00;98.70;;;;;;5121281;27;20551;-52
2021/01/27 12:23:08;;;;;;;13.63;10.52;;;3.10;98.70;;;;;;5122625;27;20516;-53
2021/01/27 12:25:34;;;;;;;12.18;9.23;;;3.10;98.70;;;;;;5124744;27;20162;-52
2021/01/27 12:28:00;;;;;;;16.75;9.45;;;3.20;98.70;;;;;;5123187;27;20039;-54
2021/01/27 12:30:26;;;;;;;13.18;9.98;;;3.20;98.80;;;;;;5120041;27;20043;-54
2021/01/27 12:32:52;;;;;;;13.18;9.65;;;3.30;98.80;;;;;;5129330;27;20049;-54
2021/01/27 12:35:20;;;;;;;13.55;9.75;;;3.40;98.80;;;;;;5126502;27;20044;-54
2021/01/27 12:37:46;;;;;;;14.02;9.85;;;3.40;98.70;;;;;;5124558;27;20039;-54
2021/01/27 12:40:14;;;;;;;11.45;9.20;;;3.50;98.80;;;;;;5127978;27;20084;-52
2021/01/27 12:42:40;;;;;;;14.40;9.63;;;3.50;98.70;;;;;;5116586;27;20035;-54
2021/01/27 12:45:11;;;;;;;13.18;9.77;;;3.50;98.80;;;;;;5131542;27;20446;-54
2021/01/27 12:47:37;;;;;;;12.80;9.73;;;3.60;98.60;;;;;;5130251;27;20047;-54
2021/01/27 12:50:09;;;;;;;12.48;9.80;;;3.60;98.80;;;;;;5131647;27;20039;-54
2021/01/27 12:52:35;;;;;;;13.40;9.75;;;3.60;98.70;;;;;;5131206;27;20039;-54
2021/01/27 12:55:01;;;;;;;13.57;10.50;;;3.60;98.80;;;;;;5128819;27;20039;-54
2021/01/27 12:57:28;;;;;;;11.57;9.00;;;3.70;99.10;;;;;;5131604;27;20057;-54
2021/01/27 12:59:54;;;;;;;13.02;9.73;;;3.70;98.90;;;;;;5132109;27;20480;-53
2021/01/27 13:02:19;;;;;;;14.77;9.40;;;3.70;99.00;;;;;;5131727;28;20035;-54
2021/01/27 13:04:45;;;;;;;14.52;10.57;;;3.80;99.00;;;;;;5132765;28;20058;-53
2021/01/27 13:07:11;;;;;;;13.48;9.95;;;3.80;98.90;;;;;;5132478;28;20039;-54
2021/01/27 13:09:36;;;;;;;13.27;10.25;;;3.90;98.90;;;;;;5133281;27;20081;-53
2021/01/27 13:12:02;;;;;;;13.35;10.38;;;3.90;98.80;;;;;;5137545;27;20046;-54
2021/01/27 13:14:28;;;;;;;13.95;10.48;;;3.90;98.80;;;;;;5137462;27;20388;-54